sensor_id;sensor_type;location;lat;lon;timestamp;temperature;humidity
13572;DHT22;6857;53.484;10.216;2022-11-20T00:00:03;2.90;99.90
13572;DHT22;6857;53.484;10.216;2022-11-20T00:02:29;3.00;99.90
13572;DHT22;6857;53.484;10.216;2022-11-20T00:04:55;3.00;99.90
13572;DHT22;6857;53.484;10.216;2022-11-20T00:07:20;2.90;99.90
13572;DHT22;6857;53.484;10.216;2022-11-20T00:09:46;2.80;99.90
13572;DHT22;6857;53.484;10.216;2022-11-20T00:12:12;2.80;99.90
13572;DHT22;6857;53.484;10.216;2022-11-20T00:14:37;2.80;99.90
13572;DHT22;6857;53.484;10.216;2022-11-20T00:17:03;2.80;99.90
13572;DHT22;6857;53.484;10.216;2022-11-20T00:19:28;2.80;99.90
13572;DHT22;6857;53.484;10.216;2022-11-20T00:21:54;2.70;99.90
13572;DHT22;6857;53.484;10.216;2022-11-20T00:24:20;2.60;99.90
13572;DHT22;6857;53.484;10.216;2022-11-20T00:26:46;2.70;99.90
13572;DHT22;6857;53.484;10.216;2022-11-20T00:29:11;2.70;99.90
13572;DHT22;6857;53.484;10.216;2022-11-20T00:31:37;2.60;99.90
13572;DHT22;6857;53.484;10.216;2022-11-20T00:34:03;2.50;99.90
13572;DHT22;6857;53.484;10.216;2022-11-20T00:36:32;2.50;99.90
13572;DHT22;6857;53.484;10.216;2022-11-20T00:38:59;2.50;99.90
13572;DHT22;6857;53.484;10.216;2022-11-20T00:41:28;2.50;99.90
13572;DHT22;6857;53.484;10.216;2022-11-20T00:43:55;3.00;99.90
13572;DHT22;6857;53.484;10.216;2022-11-20T00:46:23;2.40;99.90
13572;DHT22;6857;53.484;10.216;2022-11-20T00:48:49;2.50;99.90
13572;DHT22;6857;53.484;10.216;2022-11-20T00:51:17;2.50;99.90
13572;DHT22;6857;53.484;10.216;2022-11-20T00:53:43;2.50;99.90
13572;DHT22;6857;53.484;10.216;2022-11-20T00:56:13;2.30;99.90
13572;DHT22;6857;53.484;10.216;2022-11-20T00:58:42;2.50;99.90
13572;DHT22;6857;53.484;10.216;2022-11-20T01:01:14;3.10;99.90
13572;DHT22;6857;53.484;10.216;2022-11-20T01:03:42;2.60;99.90
13572;DHT22;6857;53.484;10.216;2022-11-20T01:06:26;2.60;99.90
13572;DHT22;6857;53.484;10.216;2022-11-20T01:08:55;2.60;99.90
13572;DHT22;6857;53.484;10.216;2022-11-20T01:11:25;2.80;99.90
13572;DHT22;6857;53.484;10.216;2022-11-20T01:13:52;2.60;99.90
13572;DHT22;6857;53.484;10.216;2022-11-20T01:16:21;2.50;99.90
13572;DHT22;6857;53.484;10.216;2022-11-20T01:18:49;2.50;99.90
13572;DHT22;6857;53.484;10.216;2022-11-20T01:21:19;2.50;99.90
13572;DHT22;6857;53.484;10.216;2022-11-20T01:23:46;3.00;99.90
13572;DHT22;6857;53.484;10.216;2022-11-20T01:26:16;2.40;99.90
13572;DHT22;6857;53.484;10.216;2022-11-20T01:28:42;2.40;99.90
13572;DHT22;6857;53.484;10.216;2022-11-20T01:31:16;2.40;99.90
13572;DHT22;6857;53.484;10.216;2022-11-20T01:33:42;2.50;99.90
13572;DHT22;6857;53.484;10.216;2022-11-20T01:36:08;2.40;99.90
13572;DHT22;6857;53.484;10.216;2022-11-20T01:38:34;2.40;99.90
13572;DHT22;6857;53.484;10.216;2022-11-20T01:40:59;2.40;99.90
13572;DHT22;6857;53.484;10.216;2022-11-20T01:43:25;2.40;99.90
13572;DHT22;6857;53.484;10.216;2022-11-20T01:46:13;2.30;99.90
13572;DHT22;6857;53.484;10.216;2022-11-20T01:54:02;2.40;99.90
13572;DHT22;6857;53.484;10.216;2022-11-20T01:56:31;2.40;99.90
13572;DHT22;6857;53.484;10.216;2022-11-20T01:59:01;2.40;99.90
13572;DHT22;6857;53.484;10.216;2022-11-20T02:01:29;2.40;99.90
13572;DHT22;6857;53.484;10.216;2022-11-20T02:03:56;2.50;99.90
13572;DHT22;6857;53.484;10.216;2022-11-20T02:06:28;2.50;99.90
13572;DHT22;6857;53.484;10.216;2022-11-20T02:08:55;2.40;99.90
13572;DHT22;6857;53.484;10.216;2022-11-20T02:11:20;2.50;99.90
13572;DHT22;6857;53.484;10.216;2022-11-20T02:13:47;2.40;99.90
13572;DHT22;6857;53.484;10.216;2022-11-20T02:16:21;2.40;99.90
13572;DHT22;6857;53.484;10.216;2022-11-20T02:18:49;2.40;99.90
13572;DHT22;6857;53.484;10.216;2022-11-20T02:24:15;2.50;99.90
13572;DHT22;6857;53.484;10.216;2022-11-20T02:29:07;2.30;99.90
13572;DHT22;6857;53.484;10.216;2022-11-20T02:31:37;2.30;99.90
13572;DHT22;6857;53.484;10.216;2022-11-20T02:34:03;2.30;99.90
13572;DHT22;6857;53.484;10.216;2022-11-20T02:36:31;2.30;99.90
13572;DHT22;6857;53.484;10.216;2022-11-20T02:38:57;2.40;99.90
13572;DHT22;6857;53.484;10.216;2022-11-20T02:41:31;2.60;99.90
13572;DHT22;6857;53.484;10.216;2022-11-20T02:43:57;2.50;99.90
13572;DHT22;6857;53.484;10.216;2022-11-20T02:46:22;2.50;99.90
13572;DHT22;6857;53.484;10.216;2022-11-20T02:48:48;2.60;99.90
13572;DHT22;6857;53.484;10.216;2022-11-20T02:51:13;2.50;99.90
13572;DHT22;6857;53.484;10.216;2022-11-20T02:53:39;2.50;99.90
13572;DHT22;6857;53.484;10.216;2022-11-20T02:56:05;2.60;99.90
13572;DHT22;6857;53.484;10.216;2022-11-20T02:58:31;2.50;99.90
13572;DHT22;6857;53.484;10.216;2022-11-20T03:00:56;2.50;99.90
13572;DHT22;6857;53.484;10.216;2022-11-20T03:03:22;2.50;99.90
13572;DHT22;6857;53.484;10.216;2022-11-20T03:05:47;2.50;99.90
13572;DHT22;6857;53.484;10.216;2022-11-20T03:08:13;2.60;99.90
13572;DHT22;6857;53.484;10.216;2022-11-20T03:10:38;2.50;99.90
13572;DHT22;6857;53.484;10.216;2022-11-20T03:13:04;2.50;99.90
13572;DHT22;6857;53.484;10.216;2022-11-20T03:15:29;2.50;99.90
13572;DHT22;6857;53.484;10.216;2022-11-20T03:17:55;2.50;99.90
13572;DHT22;6857;53.484;10.216;2022-11-20T03:20:21;2.60;99.90
13572;DHT22;6857;53.484;10.216;2022-11-20T03:27:39;2.60;99.90
13572;DHT22;6857;53.484;10.216;2022-11-20T03:30:05;2.60;99.90
13572;DHT22;6857;53.484;10.216;2022-11-20T03:32:31;2.60;99.90
13572;DHT22;6857;53.484;10.216;2022-11-20T03:34:56;2.60;99.90
13572;DHT22;6857;53.484;10.216;2022-11-20T03:37:22;2.60;99.90
13572;DHT22;6857;53.484;10.216;2022-11-20T03:39:47;2.60;99.90
13572;DHT22;6857;53.484;10.216;2022-11-20T03:42:13;2.60;99.90
13572;DHT22;6857;53.484;10.216;2022-11-20T03:44:57;2.60;99.90
13572;DHT22;6857;53.484;10.216;2022-11-20T03:47:23;2.60;99.90
13572;DHT22;6857;53.484;10.216;2022-11-20T03:49:49;2.50;99.90
13572;DHT22;6857;53.484;10.216;2022-11-20T03:52:14;2.60;99.90
13572;DHT22;6857;53.484;10.216;2022-11-20T03:54:40;2.50;99.90
13572;DHT22;6857;53.484;10.216;2022-11-20T03:57:05;2.50;99.90
13572;DHT22;6857;53.484;10.216;2022-11-20T03:59:31;2.50;99.90
13572;DHT22;6857;53.484;10.216;2022-11-20T04:01:56;2.50;99.90
13572;DHT22;6857;53.484;10.216;2022-11-20T04:04:22;2.60;99.90
13572;DHT22;6857;53.484;10.216;2022-11-20T04:06:48;2.50;99.90
13572;DHT22;6857;53.484;10.216;2022-11-20T04:09:13;2.40;99.90
13572;DHT22;6857;53.484;10.216;2022-11-20T04:11:40;2.40;99.90
13572;DHT22;6857;53.484;10.216;2022-11-20T04:14:11;2.40;99.90
13572;DHT22;6857;53.484;10.216;2022-11-20T04:16:37;2.40;99.90
13572;DHT22;6857;53.484;10.216;2022-11-20T04:19:05;2.40;99.90
13572;DHT22;6857;53.484;10.216;2022-11-20T04:21:31;2.40;99.90
13572;DHT22;6857;53.484;10.216;2022-11-20T04:23:58;2.40;99.90
13572;DHT22;6857;53.484;10.216;2022-11-20T04:26:25;2.40;99.90
13572;DHT22;6857;53.484;10.216;2022-11-20T04:28:51;2.50;99.90
13572;DHT22;6857;53.484;10.216;2022-11-20T04:31:19;2.30;99.90
13572;DHT22;6857;53.484;10.216;2022-11-20T04:33:45;2.30;99.90
13572;DHT22;6857;53.484;10.216;2022-11-20T04:36:20;2.40;99.90
13572;DHT22;6857;53.484;10.216;2022-11-20T04:38:46;2.40;99.90
13572;DHT22;6857;53.484;10.216;2022-11-20T04:41:18;2.40;99.90
13572;DHT22;6857;53.484;10.216;2022-11-20T04:43:52;2.40;99.90
13572;DHT22;6857;53.484;10.216;2022-11-20T04:46:20;2.40;99.90
13572;DHT22;6857;53.484;10.216;2022-11-20T04:48:46;2.30;99.90
13572;DHT22;6857;53.484;10.216;2022-11-20T04:51:12;2.40;99.90
13572;DHT22;6857;53.484;10.216;2022-11-20T04:53:38;2.50;99.90
13572;DHT22;6857;53.484;10.216;2022-11-20T04:56:06;2.50;99.90
13572;DHT22;6857;53.484;10.216;2022-11-20T04:58:32;2.50;99.90
13572;DHT22;6857;53.484;10.216;2022-11-20T05:01:06;2.50;99.90
13572;DHT22;6857;53.484;10.216;2022-11-20T05:03:31;2.60;99.90
13572;DHT22;6857;53.484;10.216;2022-11-20T05:06:00;2.50;99.90
13572;DHT22;6857;53.484;10.216;2022-11-20T05:08:26;2.50;99.90
13572;DHT22;6857;53.484;10.216;2022-11-20T05:10:52;2.40;99.90
13572;DHT22;6857;53.484;10.216;2022-11-20T05:13:17;2.50;99.90
13572;DHT22;6857;53.484;10.216;2022-11-20T05:15:43;2.40;99.90
13572;DHT22;6857;53.484;10.216;2022-11-20T05:18:08;2.40;99.90
13572;DHT22;6857;53.484;10.216;2022-11-20T05:20:34;2.40;99.90
13572;DHT22;6857;53.484;10.216;2022-11-20T05:23:01;2.50;99.90
13572;DHT22;6857;53.484;10.216;2022-11-20T05:25:27;2.50;99.90
13572;DHT22;6857;53.484;10.216;2022-11-20T05:27:53;2.50;99.90
13572;DHT22;6857;53.484;10.216;2022-11-20T05:30:18;2.50;99.90
13572;DHT22;6857;53.484;10.216;2022-11-20T05:32:44;2.50;99.90
13572;DHT22;6857;53.484;10.216;2022-11-20T05:35:09;2.50;99.90
13572;DHT22;6857;53.484;10.216;2022-11-20T05:37:35;2.40;99.90
13572;DHT22;6857;53.484;10.216;2022-11-20T05:40:00;2.40;99.90
13572;DHT22;6857;53.484;10.216;2022-11-20T05:42:29;2.40;99.90
13572;DHT22;6857;53.484;10.216;2022-11-20T05:45:03;2.30;99.90
13572;DHT22;6857;53.484;10.216;2022-11-20T05:47:32;2.50;99.90
13572;DHT22;6857;53.484;10.216;2022-11-20T05:49:58;2.30;99.90
13572;DHT22;6857;53.484;10.216;2022-11-20T05:52:23;2.50;99.90
13572;DHT22;6857;53.484;10.216;2022-11-20T05:54:49;2.40;99.90
13572;DHT22;6857;53.484;10.216;2022-11-20T05:57:14;2.40;99.90
13572;DHT22;6857;53.484;10.216;2022-11-20T05:59:40;2.50;99.90
13572;DHT22;6857;53.484;10.216;2022-11-20T06:02:06;2.40;99.90
13572;DHT22;6857;53.484;10.216;2022-11-20T06:04:31;2.50;99.90
13572;DHT22;6857;53.484;10.216;2022-11-20T06:06:57;2.50;99.90
13572;DHT22;6857;53.484;10.216;2022-11-20T06:09:22;2.50;99.90
13572;DHT22;6857;53.484;10.216;2022-11-20T06:11:48;2.40;99.90
13572;DHT22;6857;53.484;10.216;2022-11-20T06:14:13;2.40;99.90
13572;DHT22;6857;53.484;10.216;2022-11-20T06:16:39;2.40;99.90
13572;DHT22;6857;53.484;10.216;2022-11-20T06:19:05;2.20;99.90
13572;DHT22;6857;53.484;10.216;2022-11-20T06:21:30;2.30;99.90
13572;DHT22;6857;53.484;10.216;2022-11-20T06:23:56;2.20;99.90
13572;DHT22;6857;53.484;10.216;2022-11-20T06:26:23;2.20;99.90
13572;DHT22;6857;53.484;10.216;2022-11-20T06:28:50;2.20;99.90
13572;DHT22;6857;53.484;10.216;2022-11-20T06:31:18;2.20;99.90
13572;DHT22;6857;53.484;10.216;2022-11-20T06:33:44;2.20;99.90
13572;DHT22;6857;53.484;10.216;2022-11-20T06:36:12;2.20;99.90
13572;DHT22;6857;53.484;10.216;2022-11-20T06:38:38;2.10;99.90
13572;DHT22;6857;53.484;10.216;2022-11-20T06:41:05;2.10;99.90
13572;DHT22;6857;53.484;10.216;2022-11-20T06:43:31;2.10;99.90
13572;DHT22;6857;53.484;10.216;2022-11-20T06:45:58;2.00;99.90
13572;DHT22;6857;53.484;10.216;2022-11-20T06:48:25;2.00;99.90
13572;DHT22;6857;53.484;10.216;2022-11-20T06:50:51;2.00;99.90
13572;DHT22;6857;53.484;10.216;2022-11-20T06:53:16;2.00;99.90
13572;DHT22;6857;53.484;10.216;2022-11-20T06:55:44;2.10;99.90
13572;DHT22;6857;53.484;10.216;2022-11-20T06:58:11;2.10;99.90
13572;DHT22;6857;53.484;10.216;2022-11-20T07:00:36;2.10;99.90
13572;DHT22;6857;53.484;10.216;2022-11-20T07:03:07;2.10;99.90
13572;DHT22;6857;53.484;10.216;2022-11-20T07:05:33;2.10;99.90
13572;DHT22;6857;53.484;10.216;2022-11-20T07:07:59;2.10;99.90
13572;DHT22;6857;53.484;10.216;2022-11-20T07:10:25;2.20;99.90
13572;DHT22;6857;53.484;10.216;2022-11-20T07:12:52;2.10;99.90
13572;DHT22;6857;53.484;10.216;2022-11-20T07:15:19;2.10;99.90
13572;DHT22;6857;53.484;10.216;2022-11-20T07:17:45;2.10;99.90
13572;DHT22;6857;53.484;10.216;2022-11-20T07:20:11;2.10;99.90
13572;DHT22;6857;53.484;10.216;2022-11-20T07:22:36;2.10;99.90
13572;DHT22;6857;53.484;10.216;2022-11-20T07:25:03;2.10;99.90
13572;DHT22;6857;53.484;10.216;2022-11-20T07:27:29;2.20;99.90
13572;DHT22;6857;53.484;10.216;2022-11-20T07:29:55;2.20;99.90
13572;DHT22;6857;53.484;10.216;2022-11-20T07:32:20;2.20;99.90
13572;DHT22;6857;53.484;10.216;2022-11-20T07:34:46;2.20;99.90
13572;DHT22;6857;53.484;10.216;2022-11-20T07:37:12;2.20;99.90
13572;DHT22;6857;53.484;10.216;2022-11-20T07:39:38;2.20;99.90
13572;DHT22;6857;53.484;10.216;2022-11-20T07:42:04;2.30;99.90
13572;DHT22;6857;53.484;10.216;2022-11-20T07:44:30;2.20;99.90
13572;DHT22;6857;53.484;10.216;2022-11-20T07:46:56;2.20;99.90
13572;DHT22;6857;53.484;10.216;2022-11-20T07:49:22;2.30;99.90
13572;DHT22;6857;53.484;10.216;2022-11-20T07:51:50;2.30;99.90
13572;DHT22;6857;53.484;10.216;2022-11-20T07:54:16;2.40;99.90
13572;DHT22;6857;53.484;10.216;2022-11-20T07:56:41;2.40;99.90
13572;DHT22;6857;53.484;10.216;2022-11-20T07:59:07;2.40;99.90
13572;DHT22;6857;53.484;10.216;2022-11-20T08:01:33;2.40;99.90
13572;DHT22;6857;53.484;10.216;2022-11-20T08:03:58;2.50;99.90
13572;DHT22;6857;53.484;10.216;2022-11-20T08:06:24;2.50;99.90
13572;DHT22;6857;53.484;10.216;2022-11-20T08:08:50;2.50;99.90
13572;DHT22;6857;53.484;10.216;2022-11-20T08:11:16;2.60;99.90
13572;DHT22;6857;53.484;10.216;2022-11-20T08:14:00;2.60;99.90
13572;DHT22;6857;53.484;10.216;2022-11-20T08:16:48;2.60;99.90
13572;DHT22;6857;53.484;10.216;2022-11-20T08:19:15;2.60;99.90
13572;DHT22;6857;53.484;10.216;2022-11-20T08:21:41;2.70;99.90
13572;DHT22;6857;53.484;10.216;2022-11-20T08:24:08;2.70;99.90
13572;DHT22;6857;53.484;10.216;2022-11-20T08:26:35;2.70;99.90
13572;DHT22;6857;53.484;10.216;2022-11-20T08:29:01;2.70;99.90
13572;DHT22;6857;53.484;10.216;2022-11-20T08:31:27;2.60;99.90
13572;DHT22;6857;53.484;10.216;2022-11-20T08:33:53;2.80;99.90
13572;DHT22;6857;53.484;10.216;2022-11-20T08:36:19;2.70;99.90
13572;DHT22;6857;53.484;10.216;2022-11-20T08:38:50;2.80;99.90
13572;DHT22;6857;53.484;10.216;2022-11-20T08:41:16;2.80;99.90
13572;DHT22;6857;53.484;10.216;2022-11-20T08:43:59;2.80;99.90
13572;DHT22;6857;53.484;10.216;2022-11-20T08:46:27;2.80;99.90
13572;DHT22;6857;53.484;10.216;2022-11-20T08:48:53;2.80;99.90
13572;DHT22;6857;53.484;10.216;2022-11-20T08:51:19;2.80;99.90
13572;DHT22;6857;53.484;10.216;2022-11-20T08:53:46;2.80;99.90
13572;DHT22;6857;53.484;10.216;2022-11-20T08:56:14;2.70;99.90
13572;DHT22;6857;53.484;10.216;2022-11-20T08:58:40;2.70;99.90
13572;DHT22;6857;53.484;10.216;2022-11-20T09:01:05;2.70;99.90
13572;DHT22;6857;53.484;10.216;2022-11-20T09:03:31;2.70;99.90
13572;DHT22;6857;53.484;10.216;2022-11-20T09:05:58;2.70;99.90
13572;DHT22;6857;53.484;10.216;2022-11-20T09:08:24;2.70;99.90
13572;DHT22;6857;53.484;10.216;2022-11-20T09:10:54;2.80;99.90
13572;DHT22;6857;53.484;10.216;2022-11-20T09:13:21;2.90;99.90
13572;DHT22;6857;53.484;10.216;2022-11-20T09:15:52;3.00;99.90
13572;DHT22;6857;53.484;10.216;2022-11-20T09:18:18;3.00;99.90
13572;DHT22;6857;53.484;10.216;2022-11-20T09:20:43;3.00;99.90
13572;DHT22;6857;53.484;10.216;2022-11-20T09:23:09;3.10;99.90
13572;DHT22;6857;53.484;10.216;2022-11-20T09:25:35;3.10;99.90
13572;DHT22;6857;53.484;10.216;2022-11-20T09:28:00;3.00;99.90
13572;DHT22;6857;53.484;10.216;2022-11-20T09:30:26;3.00;99.90
13572;DHT22;6857;53.484;10.216;2022-11-20T09:32:52;3.10;99.90
13572;DHT22;6857;53.484;10.216;2022-11-20T09:35:18;3.10;99.90
13572;DHT22;6857;53.484;10.216;2022-11-20T09:37:44;3.20;99.90
13572;DHT22;6857;53.484;10.216;2022-11-20T09:40:20;3.10;99.90
13572;DHT22;6857;53.484;10.216;2022-11-20T09:42:57;3.10;99.90
13572;DHT22;6857;53.484;10.216;2022-11-20T09:48:18;3.00;99.90
13572;DHT22;6857;53.484;10.216;2022-11-20T09:50:53;3.10;99.90
13572;DHT22;6857;53.484;10.216;2022-11-20T09:55:52;3.10;99.90
13572;DHT22;6857;53.484;10.216;2022-11-20T09:58:40;3.10;99.90
13572;DHT22;6857;53.484;10.216;2022-11-20T10:01:22;3.00;99.90
13572;DHT22;6857;53.484;10.216;2022-11-20T10:04:00;3.10;99.90
13572;DHT22;6857;53.484;10.216;2022-11-20T10:06:32;3.00;99.90
13572;DHT22;6857;53.484;10.216;2022-11-20T10:09:06;3.00;99.90
13572;DHT22;6857;53.484;10.216;2022-11-20T10:12:05;3.00;99.90
13572;DHT22;6857;53.484;10.216;2022-11-20T10:17:33;2.80;99.90
13572;DHT22;6857;53.484;10.216;2022-11-20T10:20:16;3.30;99.90
13572;DHT22;6857;53.484;10.216;2022-11-20T10:25:22;2.80;99.90
13572;DHT22;6857;53.484;10.216;2022-11-20T10:28:10;2.80;99.90
13572;DHT22;6857;53.484;10.216;2022-11-20T10:30:42;2.80;99.90
13572;DHT22;6857;53.484;10.216;2022-11-20T10:35:43;2.90;99.90
13572;DHT22;6857;53.484;10.216;2022-11-20T10:38:16;2.90;99.90
13572;DHT22;6857;53.484;10.216;2022-11-20T10:40:47;3.00;99.90
13572;DHT22;6857;53.484;10.216;2022-11-20T10:43:18;3.10;99.90
13572;DHT22;6857;53.484;10.216;2022-11-20T10:48:27;3.10;99.90
13572;DHT22;6857;53.484;10.216;2022-11-20T10:50:59;3.10;99.90
13572;DHT22;6857;53.484;10.216;2022-11-20T10:53:38;3.20;99.90
13572;DHT22;6857;53.484;10.216;2022-11-20T10:56:20;3.30;99.90
13572;DHT22;6857;53.484;10.216;2022-11-20T10:58:54;3.40;99.90
13572;DHT22;6857;53.484;10.216;2022-11-20T11:01:23;3.40;99.90
13572;DHT22;6857;53.484;10.216;2022-11-20T11:03:53;3.30;99.90
13572;DHT22;6857;53.484;10.216;2022-11-20T11:06:31;3.30;99.90
13572;DHT22;6857;53.484;10.216;2022-11-20T11:09:03;3.00;99.90
13572;DHT22;6857;53.484;10.216;2022-11-20T11:11:32;3.00;99.90
13572;DHT22;6857;53.484;10.216;2022-11-20T11:14:06;3.40;99.90
13572;DHT22;6857;53.484;10.216;2022-11-20T11:16:32;3.50;99.90
13572;DHT22;6857;53.484;10.216;2022-11-20T11:19:06;3.50;99.90
13572;DHT22;6857;53.484;10.216;2022-11-20T11:21:31;3.50;99.90
13572;DHT22;6857;53.484;10.216;2022-11-20T11:24:02;3.50;99.90
13572;DHT22;6857;53.484;10.216;2022-11-20T11:26:29;3.50;99.90
13572;DHT22;6857;53.484;10.216;2022-11-20T11:29:02;3.50;99.90
13572;DHT22;6857;53.484;10.216;2022-11-20T11:31:33;3.50;99.90
13572;DHT22;6857;53.484;10.216;2022-11-20T11:34:16;3.50;99.90
13572;DHT22;6857;53.484;10.216;2022-11-20T11:36:48;3.40;99.90
13572;DHT22;6857;53.484;10.216;2022-11-20T11:39:18;3.30;99.90
13572;DHT22;6857;53.484;10.216;2022-11-20T11:41:45;3.30;99.90
13572;DHT22;6857;53.484;10.216;2022-11-20T11:44:19;3.40;99.90
13572;DHT22;6857;53.484;10.216;2022-11-20T11:47:08;3.40;99.90
13572;DHT22;6857;53.484;10.216;2022-11-20T11:49:35;3.50;99.90
13572;DHT22;6857;53.484;10.216;2022-11-20T11:52:18;3.50;99.90
13572;DHT22;6857;53.484;10.216;2022-11-20T11:54:49;3.50;99.90
13572;DHT22;6857;53.484;10.216;2022-11-20T12:00:13;3.50;99.90
13572;DHT22;6857;53.484;10.216;2022-11-20T12:06:10;3.40;99.90
13572;DHT22;6857;53.484;10.216;2022-11-20T12:08:48;3.30;99.90
13572;DHT22;6857;53.484;10.216;2022-11-20T12:16:20;3.50;99.90
13572;DHT22;6857;53.484;10.216;2022-11-20T12:18:49;3.40;99.90
13572;DHT22;6857;53.484;10.216;2022-11-20T12:34:44;3.90;99.90
13572;DHT22;6857;53.484;10.216;2022-11-20T12:37:33;3.90;99.90
13572;DHT22;6857;53.484;10.216;2022-11-20T12:40:49;3.90;99.90
13572;DHT22;6857;53.484;10.216;2022-11-20T12:43:28;3.80;99.90
13572;DHT22;6857;53.484;10.216;2022-11-20T12:46:34;3.60;99.90
13572;DHT22;6857;53.484;10.216;2022-11-20T12:51:47;3.50;99.90
13572;DHT22;6857;53.484;10.216;2022-11-20T13:00:06;3.70;99.90
13572;DHT22;6857;53.484;10.216;2022-11-20T13:05:12;3.50;99.90
13572;DHT22;6857;53.484;10.216;2022-11-20T13:07:40;3.50;99.90
13572;DHT22;6857;53.484;10.216;2022-11-20T13:10:14;3.50;99.90
13572;DHT22;6857;53.484;10.216;2022-11-20T13:12:47;3.70;99.90
13572;DHT22;6857;53.484;10.216;2022-11-20T13:15:52;3.70;99.90
13572;DHT22;6857;53.484;10.216;2022-11-20T13:18:21;3.70;99.90
13572;DHT22;6857;53.484;10.216;2022-11-20T13:20:46;3.60;99.90
13572;DHT22;6857;53.484;10.216;2022-11-20T13:23:23;3.60;99.90
13572;DHT22;6857;53.484;10.216;2022-11-20T13:25:50;3.50;99.90
13572;DHT22;6857;53.484;10.216;2022-11-20T13:30:51;3.50;99.90
13572;DHT22;6857;53.484;10.216;2022-11-20T13:36:26;3.60;99.90
13572;DHT22;6857;53.484;10.216;2022-11-20T13:38:54;3.70;99.90
13572;DHT22;6857;53.484;10.216;2022-11-20T13:41:38;3.70;99.90
13572;DHT22;6857;53.484;10.216;2022-11-20T13:44:33;3.90;99.90
13572;DHT22;6857;53.484;10.216;2022-11-20T13:47:00;3.90;99.90
13572;DHT22;6857;53.484;10.216;2022-11-20T13:49:31;4.10;99.90
13572;DHT22;6857;53.484;10.216;2022-11-20T13:52:46;4.30;99.90
13572;DHT22;6857;53.484;10.216;2022-11-20T14:00:25;4.20;99.90
13572;DHT22;6857;53.484;10.216;2022-11-20T14:03:09;4.20;99.90
13572;DHT22;6857;53.484;10.216;2022-11-20T14:05:54;4.10;99.90
13572;DHT22;6857;53.484;10.216;2022-11-20T14:08:33;4.00;99.90
13572;DHT22;6857;53.484;10.216;2022-11-20T14:11:23;4.00;99.90
13572;DHT22;6857;53.484;10.216;2022-11-20T14:16:25;4.00;99.90
13572;DHT22;6857;53.484;10.216;2022-11-20T14:18:51;3.90;99.90
13572;DHT22;6857;53.484;10.216;2022-11-20T14:21:27;3.80;99.90
13572;DHT22;6857;53.484;10.216;2022-11-20T14:24:06;3.80;99.90
13572;DHT22;6857;53.484;10.216;2022-11-20T14:26:32;3.80;99.90
13572;DHT22;6857;53.484;10.216;2022-11-20T14:28:59;3.70;99.90
13572;DHT22;6857;53.484;10.216;2022-11-20T14:31:26;3.70;99.90
13572;DHT22;6857;53.484;10.216;2022-11-20T14:33:53;3.80;99.90
13572;DHT22;6857;53.484;10.216;2022-11-20T14:36:22;3.70;99.90
13572;DHT22;6857;53.484;10.216;2022-11-20T14:38:49;3.80;99.90
13572;DHT22;6857;53.484;10.216;2022-11-20T14:41:21;3.80;99.90
13572;DHT22;6857;53.484;10.216;2022-11-20T14:43:56;3.80;99.90
13572;DHT22;6857;53.484;10.216;2022-11-20T14:46:23;3.70;99.90
13572;DHT22;6857;53.484;10.216;2022-11-20T14:48:55;3.60;99.90
13572;DHT22;6857;53.484;10.216;2022-11-20T14:51:38;3.70;99.90
13572;DHT22;6857;53.484;10.216;2022-11-20T14:54:20;3.70;99.90
13572;DHT22;6857;53.484;10.216;2022-11-20T14:56:59;3.70;99.90
13572;DHT22;6857;53.484;10.216;2022-11-20T14:59:27;3.60;99.90
13572;DHT22;6857;53.484;10.216;2022-11-20T15:02:19;3.70;99.90
13572;DHT22;6857;53.484;10.216;2022-11-20T15:04:47;3.70;99.90
13572;DHT22;6857;53.484;10.216;2022-11-20T15:07:27;3.60;99.90
13572;DHT22;6857;53.484;10.216;2022-11-20T15:10:08;3.70;99.90
13572;DHT22;6857;53.484;10.216;2022-11-20T15:12:36;3.70;99.90
13572;DHT22;6857;53.484;10.216;2022-11-20T15:15:03;3.60;99.90
13572;DHT22;6857;53.484;10.216;2022-11-20T15:17:31;3.60;99.90
13572;DHT22;6857;53.484;10.216;2022-11-20T15:19:57;3.60;99.90
13572;DHT22;6857;53.484;10.216;2022-11-20T15:22:24;3.70;99.90
13572;DHT22;6857;53.484;10.216;2022-11-20T15:24:49;3.70;99.90
13572;DHT22;6857;53.484;10.216;2022-11-20T15:27:15;3.70;99.90
13572;DHT22;6857;53.484;10.216;2022-11-20T15:29:41;3.60;99.90
13572;DHT22;6857;53.484;10.216;2022-11-20T15:32:08;3.60;99.90
13572;DHT22;6857;53.484;10.216;2022-11-20T15:34:34;3.70;99.90
13572;DHT22;6857;53.484;10.216;2022-11-20T15:36:59;3.70;99.90
13572;DHT22;6857;53.484;10.216;2022-11-20T15:39:25;3.70;99.90
13572;DHT22;6857;53.484;10.216;2022-11-20T15:41:50;3.60;99.90
13572;DHT22;6857;53.484;10.216;2022-11-20T15:44:16;3.70;99.90
13572;DHT22;6857;53.484;10.216;2022-11-20T15:46:42;3.70;99.90
13572;DHT22;6857;53.484;10.216;2022-11-20T15:49:13;3.70;99.90
13572;DHT22;6857;53.484;10.216;2022-11-20T15:51:43;3.70;99.90
13572;DHT22;6857;53.484;10.216;2022-11-20T15:54:11;3.70;99.90
13572;DHT22;6857;53.484;10.216;2022-11-20T15:56:37;3.70;99.90
13572;DHT22;6857;53.484;10.216;2022-11-20T15:59:02;3.60;99.90
13572;DHT22;6857;53.484;10.216;2022-11-20T16:01:28;3.60;99.90
13572;DHT22;6857;53.484;10.216;2022-11-20T16:03:54;3.60;99.90
13572;DHT22;6857;53.484;10.216;2022-11-20T16:06:19;3.60;99.90
13572;DHT22;6857;53.484;10.216;2022-11-20T16:08:45;3.60;99.90
13572;DHT22;6857;53.484;10.216;2022-11-20T16:11:12;3.60;99.90
13572;DHT22;6857;53.484;10.216;2022-11-20T16:13:38;3.70;99.90
13572;DHT22;6857;53.484;10.216;2022-11-20T16:16:32;3.70;99.90
13572;DHT22;6857;53.484;10.216;2022-11-20T16:18:58;3.70;99.90
13572;DHT22;6857;53.484;10.216;2022-11-20T16:21:25;3.80;99.90
13572;DHT22;6857;53.484;10.216;2022-11-20T16:23:58;3.70;99.90
13572;DHT22;6857;53.484;10.216;2022-11-20T16:26:24;3.60;99.90
13572;DHT22;6857;53.484;10.216;2022-11-20T16:28:50;3.60;99.90
13572;DHT22;6857;53.484;10.216;2022-11-20T16:31:17;3.60;99.90
13572;DHT22;6857;53.484;10.216;2022-11-20T16:33:51;3.60;99.90
13572;DHT22;6857;53.484;10.216;2022-11-20T16:36:19;3.60;99.90
13572;DHT22;6857;53.484;10.216;2022-11-20T16:38:45;3.50;99.90
13572;DHT22;6857;53.484;10.216;2022-11-20T16:41:10;3.50;99.90
13572;DHT22;6857;53.484;10.216;2022-11-20T16:43:45;3.30;99.90
13572;DHT22;6857;53.484;10.216;2022-11-20T16:46:12;3.20;99.90
13572;DHT22;6857;53.484;10.216;2022-11-20T16:48:38;3.20;99.90
13572;DHT22;6857;53.484;10.216;2022-11-20T16:51:08;3.10;99.90
13572;DHT22;6857;53.484;10.216;2022-11-20T16:53:34;3.10;99.90
13572;DHT22;6857;53.484;10.216;2022-11-20T16:56:10;3.10;99.90
13572;DHT22;6857;53.484;10.216;2022-11-20T16:58:36;3.10;99.90
13572;DHT22;6857;53.484;10.216;2022-11-20T17:01:09;3.20;99.90
13572;DHT22;6857;53.484;10.216;2022-11-20T17:03:39;3.20;99.90
13572;DHT22;6857;53.484;10.216;2022-11-20T17:06:13;3.40;99.90
13572;DHT22;6857;53.484;10.216;2022-11-20T17:08:39;3.40;99.90
13572;DHT22;6857;53.484;10.216;2022-11-20T17:11:06;3.40;99.90
13572;DHT22;6857;53.484;10.216;2022-11-20T17:13:32;3.40;99.90
13572;DHT22;6857;53.484;10.216;2022-11-20T17:16:02;3.30;99.90
13572;DHT22;6857;53.484;10.216;2022-11-20T17:18:29;3.20;99.90